Search for airport 
image banner adimage banner adimage banner ad
image banner ad

L65 - Perris Valley

Located in Perris, United States

ICAO - L65, IATA -

Data provided by Airmate  

General information

Coordinates: N33°45'53" W117°13'8"
Elevation is 1413 feet MSL.
Magnetic variation is 14° East
View others Airports in California

Operational data

Special qualification required
Current time UTC:
Current local time:
Weather at : KRIV - March Arb ( 14 km )
METAR: KRIV 221256Z AUTO 00000KT 10SM CLR 15/13 A2993 RMK AO2 SLP122 T01490126
TAF: TAF KRIV 221210Z 2212/2318 32006KT 9999 SCT180 SCT250 520309 QNH2993INS BECMG 2218/2219 32009KT 9999 BKN150 BKN250 510005 520507 QNH2987INS TEMPO 2220/2302 32012G20KT BECMG 2304/2305 VRB05KT 9999 VCSH FEW100 BKN150 BKN250 520507 QNH2986INS TEMPO 2312/2318 16008KT 9999 -SHRA SCT100 OVC150 TS OMTNS NE-SE TX33/2222Z TN14/2213Z
View NOTAMs / SUP AIP / TFR affecting this airport [VIEW]
Communications frequencies: [VIEW]

Runways:

RWY identifierQFULength (ft)Width (ft)SurfaceLDA (ft)
15510050ASPH
33510050ASPH

Airport contact information

Address: Perris United States

Satellite view of L65